Time;durP1;ratioP1;P1;durP2;ratioP2;P2;SDS_P1;SDS_P2;PMS_P1;PMS_P2;Temp;Humidity;BMP_temperature;BMP_pressure;BME280_temperature;BME280_humidity;BME280_pressure;Samples;Min_cycle;Max_cycle;Signal;HPM_P1;HPM_P2
2022/01/21 00:01:59;;;;;;;1.83;1.00;;;;;;;4.02;52.16;100179.37;4374283;32;33668;-86
2022/01/21 00:04:27;;;;;;;3.80;1.33;;;;;;;4.07;52.20;100181.06;4366902;32;32853;-86
2022/01/21 00:06:55;;;;;;;5.30;1.30;;;;;;;4.07;52.45;100182.81;4362261;32;32878;-86
2022/01/21 00:09:22;;;;;;;2.50;1.12;;;;;;;4.22;52.06;100168.69;4382811;32;34039;-85
2022/01/21 00:11:50;;;;;;;4.70;1.77;;;;;;;4.19;52.02;100174.84;4381233;32;34573;-85
2022/01/21 00:14:18;;;;;;;3.83;1.40;;;;;;;4.43;51.10;100178.91;4359410;32;32908;-85
2022/01/21 00:16:45;;;;;;;4.20;1.80;;;;;;;4.47;50.61;100185.81;4381220;32;33111;-84
2022/01/21 00:19:16;;;;;;;2.67;1.15;;;;;;;4.00;51.99;100179.41;4376480;32;34093;-84
2022/01/21 00:30:15;;;;;;;4.37;1.05;;;;;;;3.71;52.31;100197.13;4377669;32;33511;-85
2022/01/21 00:32:46;;;;;;;2.60;0.73;;;;;;;3.72;51.76;100191.88;4369997;32;32469;-85
2022/01/21 00:35:15;;;;;;;3.50;0.93;;;;;;;3.44;52.28;100193.00;4376544;32;34604;-85
2022/01/21 00:37:43;;;;;;;3.00;0.68;;;;;;;3.62;51.80;100177.19;4358751;32;32764;-85
2022/01/21 00:40:15;;;;;;;1.83;0.98;;;;;;;3.70;51.16;100167.50;4356848;32;33033;-85
2022/01/21 00:43:05;;;;;;;;;;;;;;;3.86;50.99;100170.84;4358722;32;33847;-85
2022/01/21 00:45:30;;;;;;;3.50;0.75;;;;;;;4.08;50.50;100171.47;4370423;32;33812;-85
2022/01/21 00:47:59;;;;;;;2.35;1.00;;;;;;;4.20;50.42;100173.94;4381566;32;32797;-85
2022/01/21 00:50:27;;;;;;;1.42;0.77;;;;;;;3.98;50.43;100165.47;4368363;32;34228;-85
2022/01/21 00:52:55;;;;;;;3.00;0.80;;;;;;;4.12;50.45;100163.56;4376171;32;33613;-85
2022/01/21 00:55:23;;;;;;;2.25;0.62;;;;;;;4.12;50.54;100163.56;4381895;32;34125;-85
2022/01/21 00:57:51;;;;;;;1.95;0.73;;;;;;;4.07;50.49;100169.75;4382686;32;33537;-85
2022/01/21 01:00:21;;;;;;;2.08;0.70;;;;;;;3.79;51.14;100187.44;4366087;32;33294;-85
2022/01/21 01:02:49;;;;;;;8.77;1.77;;;;;;;3.89;50.99;100202.16;4380273;32;36177;-84
2022/01/21 01:05:17;;;;;;;1.25;0.70;;;;;;;3.97;51.09;100194.25;4383331;32;32838;-85
2022/01/21 01:07:44;;;;;;;4.20;0.80;;;;;;;4.09;50.35;100196.75;4381436;32;32542;-84
2022/01/21 01:10:19;;;;;;;0.88;0.50;;;;;;;3.61;51.83;100196.34;4363141;32;32824;-85
2022/01/21 01:20:50;;;;;;;0.52;0.20;;;;;;;3.47;51.58;100198.22;4392616;32;33556;-85
2022/01/21 01:23:37;;;;;;;2.22;0.30;;;;;;;3.19;52.45;100197.56;4382522;32;34511;-85
2022/01/21 01:28:52;;;;;;;1.40;0.20;;;;;;;3.42;52.09;100202.59;4370205;32;32439;-84
2022/01/21 01:31:22;;;;;;;1.90;0.50;;;;;;;3.40;52.01;100206.97;4382117;32;34405;-84
2022/01/21 01:33:49;;;;;;;1.12;0.40;;;;;;;3.53;51.52;100211.22;4370440;32;33369;-84
2022/01/21 01:36:17;;;;;;;1.87;0.25;;;;;;;3.22;52.42;100203.59;4382436;32;32777;-85
2022/01/21 01:39:02;;;;;;;1.20;0.30;;;;;;;3.37;52.44;100196.53;4354711;32;32627;-84
2022/01/21 01:41:46;;;;;;;2.22;0.20;;;;;;;3.28;52.57;100208.81;4368822;32;33065;-85
2022/01/21 01:49:46;;;;;;;1.50;0.50;;;;;;;3.40;52.28;100212.19;4382795;32;33230;-85
2022/01/21 01:52:17;;;;;;;1.27;0.45;;;;;;;2.82;54.73;100224.75;4354159;32;32103;-85
2022/01/21 01:54:50;;;;;;;0.75;0.30;;;;;;;3.21;53.84;100227.97;4342687;32;34060;-85
2022/01/21 01:57:18;;;;;;;1.40;0.50;;;;;;;3.26;53.75;100223.59;4371722;32;32072;-85
2022/01/21 01:59:46;;;;;;;2.50;0.30;;;;;;;3.19;54.13;100240.19;4380707;32;34139;-85
2022/01/21 02:02:19;;;;;;;0.68;0.30;;;;;;;3.44;53.75;100234.78;4377076;32;33514;-85
2022/01/21 02:04:49;;;;;;;1.23;0.40;;;;;;;3.18;54.83;100238.44;4378471;32;33504;-85
2022/01/21 02:07:18;;;;;;;1.30;0.40;;;;;;;2.97;55.61;100233.34;4367243;32;33670;-85
2022/01/21 02:09:46;;;;;;;4.30;0.47;;;;;;;2.72;56.71;100241.31;4368517;32;33360;-85
2022/01/21 02:12:14;;;;;;;0.65;0.40;;;;;;;2.90;56.28;100240.37;4381130;32;32818;-85
2022/01/21 02:14:49;;;;;;;0.40;0.25;;;;;;;2.89;56.33;100242.97;4357224;32;34128;-85
2022/01/21 02:22:53;;;;;;;1.50;0.40;;;;;;;3.39;55.10;100226.13;4379843;32;34892;-85
2022/01/21 02:25:21;;;;;;;2.20;0.55;;;;;;;3.26;55.51;100222.72;4367927;32;33627;-85
2022/01/21 02:27:58;;;;;;;0.55;0.30;;;;;;;2.98;56.26;100219.44;4352363;32;34170;-85
2022/01/21 02:30:28;;;;;;;1.58;0.43;;;;;;;3.12;56.14;100208.91;4354925;32;33319;-85
2022/01/21 02:32:59;;;;;;;1.00;0.45;;;;;;;3.14;55.88;100204.56;4352461;32;34218;-85
2022/01/21 02:35:27;;;;;;;3.10;0.40;;;;;;;3.65;54.47;100215.44;4353753;32;34350;-85
2022/01/21 02:37:54;;;;;;;1.05;0.28;;;;;;;3.42;55.41;100210.41;4330697;32;33454;-85
2022/01/21 02:40:22;;;;;;;1.17;0.40;;;;;;;3.55;55.05;100209.44;4355600;32;33651;-85
2022/01/21 02:42:50;;;;;;;6.80;1.20;;;;;;;3.36;55.12;100216.56;4354958;32;33708;-85
2022/01/21 02:45:18;;;;;;;3.75;0.80;;;;;;;3.42;54.98;100202.59;4354208;32;33296;-85
2022/01/21 02:47:46;;;;;;;3.60;1.25;;;;;;;3.08;55.56;100192.41;4359780;32;33711;-84
2022/01/21 02:50:16;;;;;;;2.70;1.20;;;;;;;3.33;54.77;100195.72;4366363;32;33586;-85
2022/01/21 02:52:57;;;;;;;1.15;0.40;;;;;;;3.24;55.26;100207.09;4354963;32;32456;-85
2022/01/21 02:55:25;;;;;;;0.30;0.30;;;;;;;3.46;54.74;100212.12;4366354;32;33629;-85
2022/01/21 02:57:53;;;;;;;2.58;0.40;;;;;;;3.29;55.12;100214.88;4366702;32;34224;-85
2022/01/21 03:00:21;;;;;;;3.12;0.40;;;;;;;3.25;54.89;100205.34;4356108;32;32379;-85
2022/01/21 03:02:49;;;;;;;5.00;0.68;;;;;;;3.11;55.38;100207.19;4365351;32;32844;-84
2022/01/21 03:05:18;;;;;;;1.75;0.98;;;;;;;3.50;54.34;100213.84;4355653;32;33072;-85
2022/01/21 03:07:49;;;;;;;1.42;0.60;;;;;;;3.76;53.51;100216.22;4341786;32;32743;-85
2022/01/21 03:10:17;;;;;;;2.33;0.80;;;;;;;3.57;53.96;100224.22;4354168;32;33337;-85
2022/01/21 03:12:45;;;;;;;3.97;0.70;;;;;;;3.36;54.56;100227.00;4365484;32;33536;-85
2022/01/21 03:15:12;;;;;;;1.95;0.60;;;;;;;3.25;54.87;100219.25;4366144;32;33984;-84
2022/01/21 03:17:40;;;;;;;5.35;0.65;;;;;;;2.93;55.93;100234.25;4353775;32;33416;-84
2022/01/21 03:20:08;;;;;;;2.53;0.57;;;;;;;2.65;56.56;100228.31;4354140;32;33456;-84
2022/01/21 03:22:36;;;;;;;3.12;1.05;;;;;;;2.89;55.83;100229.91;4365688;32;33800;-84
2022/01/21 03:25:05;;;;;;;3.85;0.77;;;;;;;2.61;56.89;100230.09;4367053;32;34868;-85
2022/01/21 03:27:34;;;;;;;3.72;0.88;;;;;;;2.72;56.81;100238.72;4365439;32;32986;-85
2022/01/21 03:30:05;;;;;;;3.03;1.10;;;;;;;2.68;56.90;100247.41;4367506;32;32839;-85
2022/01/21 03:32:35;;;;;;;2.92;0.77;;;;;;;2.69;57.05;100258.72;4369255;32;33350;-85
2022/01/21 03:35:03;;;;;;;1.95;0.73;;;;;;;3.00;55.91;100260.31;4362677;32;32997;-85
2022/01/21 03:37:31;;;;;;;3.85;0.73;;;;;;;2.56;57.02;100247.44;4380867;32;32270;-85
2022/01/21 03:39:59;;;;;;;1.25;0.40;;;;;;;2.58;56.96;100256.16;4365960;32;33032;-85
2022/01/21 03:42:28;;;;;;;0.88;0.50;;;;;;;2.87;56.02;100255.16;4381018;32;34596;-85
2022/01/21 03:44:56;;;;;;;0.40;0.40;;;;;;;2.82;55.95;100256.03;4371443;32;32956;-85
2022/01/21 03:47:23;;;;;;;3.10;0.75;;;;;;;3.00;55.26;100255.09;4380624;32;33874;-85
2022/01/21 03:49:56;;;;;;;4.07;0.68;;;;;;;3.04;55.40;100253.31;4358209;32;32935;-84
2022/01/21 03:52:24;;;;;;;1.37;0.50;;;;;;;2.63;56.36;100241.34;4381883;32;32715;-84
2022/01/21 03:54:51;;;;;;;3.85;0.70;;;;;;;2.50;56.73;100248.34;4370034;32;33416;-84
2022/01/21 03:57:19;;;;;;;1.50;0.85;;;;;;;2.97;54.75;100249.88;4369391;32;33797;-83
2022/01/21 03:59:47;;;;;;;1.50;0.40;;;;;;;3.01;54.46;100248.97;4383489;32;34154;-84
2022/01/21 04:02:15;;;;;;;3.10;0.30;;;;;;;2.79;54.29;100252.56;4371481;32;33086;-84
2022/01/21 04:04:44;;;;;;;1.08;0.55;;;;;;;2.67;54.92;100245.69;4369242;32;33956;-84
2022/01/21 04:07:12;;;;;;;2.95;0.40;;;;;;;2.67;55.07;100250.91;4374287;32;32441;-85
2022/01/21 04:09:39;;;;;;;4.75;0.80;;;;;;;2.87;54.00;100242.12;4381795;32;33371;-85
2022/01/21 04:12:09;;;;;;;3.28;0.50;;;;;;;2.62;54.10;100239.63;4367799;32;33919;-85
2022/01/21 04:14:37;;;;;;;2.58;0.40;;;;;;;2.79;52.87;100234.31;4379975;32;33483;-85
2022/01/21 04:17:05;;;;;;;1.23;0.40;;;;;;;2.13;54.57;100241.50;4381551;32;34533;-85
2022/01/21 04:19:33;;;;;;;0.60;0.28;;;;;;;2.22;53.66;100231.94;4367768;32;33871;-86
2022/01/21 04:22:03;;;;;;;1.65;0.70;;;;;;;1.83;54.63;100239.84;4394912;32;33080;-84
2022/01/21 04:24:31;;;;;;;2.03;0.40;;;;;;;2.07;53.35;100241.53;4380245;32;34039;-84
2022/01/21 04:26:59;;;;;;;0.30;0.30;;;;;;;2.33;52.92;100251.88;4367589;32;32872;-84
2022/01/21 04:29:27;;;;;;;2.72;1.00;;;;;;;2.26;53.04;100241.47;4370347;32;33263;-84
2022/01/21 04:31:55;;;;;;;3.70;0.50;;;;;;;2.13;53.05;100258.00;4370005;32;33031;-84
2022/01/21 04:34:24;;;;;;;0.70;0.50;;;;;;;1.89;53.58;100269.34;4363920;32;33363;-84
2022/01/21 04:36:52;;;;;;;3.72;0.65;;;;;;;1.91;53.67;100266.75;4357230;32;32488;-84
2022/01/21 04:39:27;;;;;;;2.42;0.57;;;;;;;2.09;53.09;100271.94;4370533;32;32988;-86
2022/01/21 04:47:29;;;;;;;2.10;0.60;;;;;;;1.62;53.91;100283.25;4382325;32;34327;-86
2022/01/21 04:49:57;;;;;;;5.65;1.17;;;;;;;1.67;53.27;100288.47;4382047;32;33051;-86
2022/01/21 04:52:26;;;;;;;3.08;0.68;;;;;;;1.43;54.01;100295.38;4383513;32;32847;-85
2022/01/21 04:54:55;;;;;;;3.65;0.60;;;;;;;1.50;54.24;100293.63;4364010;32;32604;-85
2022/01/21 04:57:23;;;;;;;2.33;0.60;;;;;;;1.67;53.63;100299.75;4381057;32;33277;-86
2022/01/21 04:59:51;;;;;;;1.55;0.60;;;;;;;1.55;53.48;100299.72;4382638;32;33815;-86
2022/01/21 05:02:19;;;;;;;1.35;0.40;;;;;;;1.82;52.84;100308.41;4376277;32;35135;-85
2022/01/21 05:04:47;;;;;;;1.80;0.73;;;;;;;1.82;53.21;100313.62;4369445;32;33193;-85
2022/01/21 05:07:20;;;;;;;3.30;0.50;;;;;;;1.85;52.97;100313.59;4368834;32;32821;-85
2022/01/21 05:09:48;;;;;;;0.88;0.62;;;;;;;1.87;52.87;100317.97;4380635;32;32810;-85
2022/01/21 05:12:20;;;;;;;4.35;0.60;;;;;;;1.46;54.14;100321.38;4384245;32;34593;-85
2022/01/21 05:17:26;;;;;;;5.90;1.17;;;;;;;1.47;54.38;100317.94;4372088;32;32685;-85
2022/01/21 05:19:54;;;;;;;3.70;1.23;;;;;;;1.69;52.96;100313.59;4382199;32;33035;-85
2022/01/21 05:22:23;;;;;;;4.35;0.90;;;;;;;1.37;53.30;100321.38;4381806;32;33440;-85
2022/01/21 05:24:51;;;;;;;1.37;0.60;;;;;;;1.33;53.84;100331.78;4376157;32;32830;-85
2022/01/21 05:27:19;;;;;;;3.53;0.62;;;;;;;1.35;53.55;100337.84;4355333;32;32440;-84
2022/01/21 05:29:47;;;;;;;3.72;0.80;;;;;;;1.48;52.84;100339.63;4353613;32;32382;-84
2022/01/21 05:32:16;;;;;;;2.20;1.12;;;;;;;1.37;53.27;100342.19;4364897;32;33888;-84
2022/01/21 05:34:50;;;;;;;3.90;0.80;;;;;;;1.56;52.72;100348.28;4361466;32;34798;-85
2022/01/21 05:37:18;;;;;;;2.30;0.75;;;;;;;1.55;52.75;100346.56;4373613;32;32962;-84
2022/01/21 05:39:46;;;;;;;2.85;0.55;;;;;;;1.66;52.37;100350.06;4353409;32;32743;-84
2022/01/21 05:42:14;;;;;;;2.30;0.70;;;;;;;1.27;53.48;100338.69;4370775;32;33903;-85
2022/01/21 05:47:11;;;;;;;1.77;0.85;;;;;;;1.47;53.63;100343.06;4375691;32;33376;-83
2022/01/21 05:49:40;;;;;;;0.60;0.60;;;;;;;1.34;53.69;100343.94;4364400;32;32197;-83
2022/01/21 05:52:19;;;;;;;2.62;0.55;;;;;;;1.53;53.20;100348.31;4357863;32;34200;-83
2022/01/21 05:54:49;;;;;;;1.25;0.75;;;;;;;1.55;52.95;100351.78;4356898;32;34523;-84
2022/01/21 05:57:19;;;;;;;3.83;1.02;;;;;;;0.86;54.94;100361.97;4339723;32;33313;-83
2022/01/21 05:59:49;;;;;;;2.90;1.02;;;;;;;1.33;53.95;100363.00;4347844;32;33177;-83
2022/01/21 06:02:17;;;;;;;4.12;0.98;;;;;;;1.41;53.59;100374.28;4364056;32;34902;-83
2022/01/21 06:04:49;;;;;;;1.50;0.68;;;;;;;1.19;54.04;100382.06;4363124;32;33851;-83
2022/01/21 06:07:18;;;;;;;1.00;0.68;;;;;;;1.42;53.54;100389.91;4350503;32;34404;-83
2022/01/21 06:09:46;;;;;;;2.05;0.90;;;;;;;1.07;54.48;100395.00;4348289;32;33874;-82
2022/01/21 06:12:14;;;;;;;4.53;0.70;;;;;;;0.94;55.04;100403.59;4374427;32;33555;-83
2022/01/21 06:14:42;;;;;;;4.28;1.08;;;;;;;1.10;54.03;100408.03;4346731;32;33706;-83
2022/01/21 06:17:13;;;;;;;3.12;0.68;;;;;;;1.17;53.96;100417.56;4356151;32;33657;-83
2022/01/21 06:19:41;;;;;;;2.30;0.70;;;;;;;1.19;53.87;100436.69;4359840;32;33276;-85
2022/01/21 06:22:09;;;;;;;3.80;0.62;;;;;;;1.38;53.24;100441.97;4367362;32;32997;-85
2022/01/21 06:24:36;;;;;;;1.23;0.57;;;;;;;1.59;52.61;100442.00;4350211;32;32967;-84
2022/01/21 06:27:04;;;;;;;2.97;0.70;;;;;;;1.73;52.29;100444.66;4360017;32;32811;-86
2022/01/21 06:29:32;;;;;;;2.08;0.88;;;;;;;1.57;52.91;100456.78;4364512;32;33647;-85
2022/01/21 06:32:00;;;;;;;2.92;1.10;;;;;;;1.90;51.62;100457.69;4350948;32;33219;-85
2022/01/21 06:34:27;;;;;;;1.42;0.73;;;;;;;1.52;53.01;100461.09;4369613;32;33559;-86
2022/01/21 06:36:55;;;;;;;9.43;0.90;;;;;;;1.70;52.27;100463.72;4357933;32;32380;-86
2022/01/21 06:39:23;;;;;;;3.90;1.12;;;;;;;1.67;52.41;100465.47;4383709;32;34049;-85
2022/01/21 06:41:51;;;;;;;3.90;1.30;;;;;;;1.67;52.31;100468.94;4356556;32;33740;-86
2022/01/21 06:44:19;;;;;;;2.62;1.00;;;;;;;1.41;53.22;100476.63;4363243;32;32491;-86
2022/01/21 06:46:47;;;;;;;3.72;1.08;;;;;;;1.50;53.10;100478.41;4369212;32;32890;-85
2022/01/21 06:49:15;;;;;;;2.50;1.05;;;;;;;1.46;53.29;100480.13;4362761;32;33658;-85
2022/01/21 06:51:44;;;;;;;4.15;1.10;;;;;;;1.37;53.28;100485.28;4382634;32;34642;-85
2022/01/21 06:54:13;;;;;;;1.27;0.65;;;;;;;0.94;54.78;100497.19;4364492;32;34811;-85
2022/01/21 06:56:41;;;;;;;2.90;0.82;;;;;;;1.61;52.24;100486.25;4379284;32;34371;-85
2022/01/21 06:59:08;;;;;;;2.65;0.95;;;;;;;1.36;52.88;100498.31;4348151;32;32898;-86
2022/01/21 07:01:36;;;;;;;3.58;1.10;;;;;;;1.34;53.14;100500.03;4365742;32;33465;-86
2022/01/21 07:04:04;;;;;;;1.60;0.80;;;;;;;1.32;53.08;100512.16;4367503;32;33277;-86
2022/01/21 07:06:32;;;;;;;2.22;0.70;;;;;;;1.33;53.19;100519.09;4361470;32;33320;-86
2022/01/21 07:09:00;;;;;;;2.70;0.90;;;;;;;1.29;52.92;100520.84;4364032;32;32337;-85
2022/01/21 07:11:27;;;;;;;4.35;0.90;;;;;;;1.35;52.92;100520.00;4348773;32;33270;-86
2022/01/21 07:13:55;;;;;;;3.53;0.77;;;;;;;1.44;52.57;100530.44;4365228;32;32970;-86
2022/01/21 07:16:23;;;;;;;2.47;0.60;;;;;;;1.37;52.83;100534.72;4362922;32;33850;-86
2022/01/21 07:18:50;;;;;;;2.58;0.88;;;;;;;1.28;52.82;100545.09;4371530;32;33500;-85
2022/01/21 07:21:18;;;;;;;0.85;0.55;;;;;;;1.76;51.63;100549.69;4350223;32;32834;-85
2022/01/21 07:23:46;;;;;;;2.30;0.68;;;;;;;1.60;52.00;100550.47;4364274;32;34536;-85
2022/01/21 07:26:14;;;;;;;2.72;0.73;;;;;;;1.60;51.62;100554.81;4357033;32;32444;-85
2022/01/21 07:28:41;;;;;;;4.32;1.12;;;;;;;1.65;51.29;100550.50;4358241;32;32480;-86
2022/01/21 07:31:15;;;;;;;2.05;0.70;;;;;;;1.60;51.55;100557.41;4366748;32;33006;-85
2022/01/21 07:33:42;;;;;;;6.72;0.70;;;;;;;1.72;51.20;100553.13;4364736;32;32819;-85
2022/01/21 07:36:10;;;;;;;2.95;0.77;;;;;;;1.85;50.36;100542.75;4368206;32;32954;-86
2022/01/21 07:38:40;;;;;;;2.87;0.85;;;;;;;1.63;51.31;100542.69;4367460;32;32179;-86
2022/01/21 07:41:08;;;;;;;0.80;0.68;;;;;;;1.63;51.15;100534.00;4369299;32;33129;-86
2022/01/21 07:43:40;;;;;;;5.35;0.88;;;;;;;1.92;50.51;100528.91;4364217;32;32972;-86
2022/01/21 07:46:08;;;;;;;4.10;1.40;;;;;;;1.91;50.63;100532.37;4378931;32;32604;-86
2022/01/21 07:48:36;;;;;;;2.97;0.75;;;;;;;1.86;50.22;100523.69;4366175;32;31846;-85
2022/01/21 07:51:04;;;;;;;10.43;0.77;;;;;;;1.40;50.96;100528.69;4357401;32;32701;-86
2022/01/21 07:53:32;;;;;;;5.25;0.50;;;;;;;1.40;50.60;100513.94;4356905;32;31795;-86
2022/01/21 07:56:01;;;;;;;7.22;0.73;;;;;;;1.60;49.55;100516.62;4366959;32;33059;-86
2022/01/21 07:58:29;;;;;;;2.72;0.70;;;;;;;1.44;50.26;100533.91;4371910;32;34315;-86
2022/01/21 08:00:57;;;;;;;3.22;0.60;;;;;;;1.69;49.59;100540.09;4384464;32;31308;-86
2022/01/21 08:03:28;;;;;;;3.58;0.77;;;;;;;1.40;50.13;100533.91;4368914;32;35209;-86
2022/01/21 08:05:55;;;;;;;2.15;0.40;;;;;;;1.60;49.49;100536.59;4349213;32;34167;-86
2022/01/21 08:08:24;;;;;;;4.45;0.68;;;;;;;1.60;49.01;100537.44;4380637;32;31969;-86
2022/01/21 08:10:53;;;;;;;2.58;0.62;;;;;;;1.58;49.15;100544.41;4350808;32;32378;-86
2022/01/21 08:13:21;;;;;;;1.50;0.77;;;;;;;1.67;48.68;100547.03;4366652;32;33250;-86
2022/01/21 08:15:49;;;;;;;4.60;0.90;;;;;;;0.94;50.75;100544.00;4366212;32;34065;-86
2022/01/21 08:18:17;;;;;;;1.05;0.80;;;;;;;1.51;49.82;100545.22;4377993;32;35334;-85
2022/01/21 08:20:44;;;;;;;5.43;0.60;;;;;;;1.43;49.36;100534.78;4364404;32;32630;-86
2022/01/21 08:23:12;;;;;;;2.87;0.70;;;;;;;1.59;48.61;100516.62;4375817;32;33065;-86
2022/01/21 08:25:41;;;;;;;3.05;0.62;;;;;;;1.39;49.63;100506.13;4355137;32;33079;-88
2022/01/21 08:28:09;;;;;;;1.52;0.60;;;;;;;1.67;48.81;100507.13;4363612;32;32591;-87
2022/01/21 08:30:37;;;;;;;4.53;0.95;;;;;;;1.82;47.90;100503.69;4368719;32;33577;-87
2022/01/21 08:33:08;;;;;;;1.65;0.50;;;;;;;1.45;48.78;100514.84;4368829;32;33900;-86
2022/01/21 08:35:36;;;;;;;1.45;0.50;;;;;;;1.81;47.93;100515.84;4364361;32;33054;-84
2022/01/21 08:38:04;;;;;;;3.55;0.88;;;;;;;1.71;48.09;100509.75;4358855;32;32410;-84
2022/01/21 08:40:34;;;;;;;2.37;0.80;;;;;;;1.43;48.85;100529.59;4369733;32;33889;-84
2022/01/21 08:43:02;;;;;;;5.53;0.80;;;;;;;1.44;49.38;100522.66;4380339;32;35367;-84
2022/01/21 08:45:30;;;;;;;5.32;0.93;;;;;;;1.63;48.57;100508.84;4360848;32;32427;-84
2022/01/21 08:47:59;;;;;;;7.78;0.93;;;;;;;1.70;48.82;100539.22;4382732;32;32109;-84
2022/01/21 08:50:27;;;;;;;3.92;0.93;;;;;;;1.90;47.64;100530.62;4367497;32;33388;-84
2022/01/21 08:53:07;;;;;;;5.32;0.62;;;;;;;1.51;48.71;100538.28;4381343;32;33137;-84
2022/01/21 08:55:35;;;;;;;1.62;0.80;;;;;;;1.68;47.76;100543.56;4394458;32;33272;-84
2022/01/21 08:58:03;;;;;;;6.18;0.80;;;;;;;1.16;49.38;100576.25;4382578;32;33333;-84
2022/01/21 09:00:31;;;;;;;5.03;1.05;;;;;;;1.71;47.95;100560.91;4357207;32;33863;-84
2022/01/21 09:02:59;;;;;;;1.37;0.82;;;;;;;1.82;48.33;100574.00;4369744;32;33332;-84
2022/01/21 09:05:30;;;;;;;2.35;0.68;;;;;;;2.17;46.18;100577.59;4368139;32;34268;-84
2022/01/21 09:07:58;;;;;;;4.20;0.70;;;;;;;2.00;46.90;100566.28;4368422;32;32568;-85
2022/01/21 09:10:26;;;;;;;3.78;0.98;;;;;;;1.71;47.65;100586.97;4382325;32;33586;-84
2022/01/21 09:12:53;;;;;;;5.10;0.82;;;;;;;1.84;46.89;100590.50;4375297;32;34304;-85
2022/01/21 09:15:25;;;;;;;7.28;1.30;;;;;;;2.02;46.58;100582.75;4368553;32;33886;-84
2022/01/21 09:18:03;;;;;;;3.67;0.70;;;;;;;2.17;45.79;100582.81;4368264;32;32814;-85
2022/01/21 09:20:32;;;;;;;3.03;0.88;;;;;;;2.17;46.05;100590.63;4376012;32;33330;-85
2022/01/21 09:23:00;;;;;;;0.85;0.47;;;;;;;1.46;48.51;100592.03;4375034;32;33313;-85
2022/01/21 09:25:28;;;;;;;2.92;1.08;;;;;;;2.09;46.57;100584.53;4370396;32;32398;-85
2022/01/21 09:27:58;;;;;;;3.17;1.20;;;;;;;2.53;45.58;100583.75;4368846;32;32737;-85
2022/01/21 09:30:27;;;;;;;6.97;0.70;;;;;;;2.39;46.07;100606.34;4368882;32;33332;-85
2022/01/21 09:32:56;;;;;;;2.72;0.25;;;;;;;2.31;45.47;100588.91;4382016;32;32710;-85
2022/01/21 09:35:24;;;;;;;1.37;0.60;;;;;;;1.99;45.95;100598.38;4383484;32;33650;-85
2022/01/21 09:37:52;;;;;;;3.08;0.70;;;;;;;2.54;44.95;100602.00;4363669;32;31868;-85
2022/01/21 09:40:44;;;;;;;1.08;0.40;;;;;;;2.73;45.10;100595.06;4381804;32;33804;-85
2022/01/21 09:43:12;;;;;;;;;;;;;;;3.07;44.18;100595.09;4381833;32;33696;-84
2022/01/21 09:45:41;;;;;;;1.77;0.75;;;;;;;2.99;44.29;100591.59;4380983;32;33837;-85
2022/01/21 09:48:10;;;;;;;5.45;0.70;;;;;;;3.19;44.19;100595.09;4370626;32;32054;-85
2022/01/21 09:50:38;;;;;;;2.67;0.73;;;;;;;3.20;44.39;100595.94;4380341;32;34548;-85
2022/01/21 09:53:07;;;;;;;3.55;0.77;;;;;;;2.90;44.71;100602.06;4357258;32;33330;-85
2022/01/21 09:55:34;;;;;;;2.62;1.10;;;;;;;2.98;44.35;100595.94;4368898;32;32186;-85
2022/01/21 09:58:02;;;;;;;2.72;0.85;;;;;;;2.75;45.98;100595.97;4369443;32;33233;-85
2022/01/21 10:00:30;;;;;;;4.85;0.70;;;;;;;2.99;44.84;100600.31;4370423;32;32376;-85
2022/01/21 10:03:01;;;;;;;5.07;2.10;;;;;;;3.37;44.23;100599.44;4369425;32;31086;-85
2022/01/21 10:05:29;;;;;;;2.53;1.65;;;;;;;3.54;43.61;100589.78;4379405;32;33652;-85
2022/01/21 10:07:59;;;;;;;3.28;0.93;;;;;;;3.47;43.80;100595.06;4368321;32;32589;-85
2022/01/21 10:10:27;;;;;;;7.97;1.80;;;;;;;3.19;45.12;100589.87;4382869;32;33482;-88
2022/01/21 10:13:01;;;;;;;2.53;0.88;;;;;;;3.23;44.63;100598.53;4382937;32;32587;-86
2022/01/21 10:15:30;;;;;;;3.72;1.10;;;;;;;3.46;44.88;100578.50;4383964;32;33544;-86
2022/01/21 10:18:00;;;;;;;5.05;1.12;;;;;;;3.47;44.87;100584.59;4367874;32;32769;-86
2022/01/21 10:20:56;;;;;;;3.30;1.05;;;;;;;3.27;44.93;100590.72;4368599;32;32858;-86
2022/01/21 10:23:25;;;;;;;3.80;0.70;;;;;;;2.98;45.33;100590.72;4377087;32;34479;-86
2022/01/21 10:26:01;;;;;;;4.55;1.92;;;;;;;3.09;45.69;100585.53;4363597;32;195755;-86
2022/01/21 10:28:30;;;;;;;2.37;1.30;;;;;;;3.23;45.60;100591.59;4371774;32;33255;-85
2022/01/21 10:31:09;;;;;;;6.30;1.35;;;;;;;3.72;44.54;100575.81;4368761;32;34749;-85
2022/01/21 10:33:41;;;;;;;7.05;1.30;;;;;;;3.83;43.58;100584.47;4383406;32;33008;-86
2022/01/21 10:36:12;;;;;;;;;;;;;;;4.09;43.28;100571.31;4387552;32;35315;-85
2022/01/21 10:38:43;;;;;;;2.10;0.85;;;;;;;3.48;44.48;100586.34;4372384;32;33357;-85
2022/01/21 10:41:19;;;;;;;1.42;0.73;;;;;;;3.31;45.32;100589.84;4380501;32;33568;-85
2022/01/21 10:44:25;;;;;;;1.58;0.70;;;;;;;3.16;44.96;100589.87;4370510;32;33904;-85
2022/01/21 10:47:12;;;;;;;4.60;0.90;;;;;;;2.87;46.61;100586.41;4323866;33;33082;-88
2022/01/21 10:49:42;;;;;;;7.40;0.80;;;;;;;2.28;47.91;100601.09;4389363;32;32450;-88
2022/01/21 10:52:14;;;;;;;2.67;0.85;;;;;;;2.62;47.00;100591.59;4371942;32;33768;-89
2022/01/21 10:54:45;;;;;;;5.93;0.95;;;;;;;2.32;47.90;100602.81;4366867;32;32970;-89
2022/01/21 10:57:15;;;;;;;1.48;0.88;;;;;;;2.76;47.30;100600.31;4371391;32;34738;-88
2022/01/21 10:59:55;;;;;;;2.50;0.95;;;;;;;2.91;47.05;100601.19;4370066;32;33920;-88
2022/01/21 11:02:34;;;;;;;1.33;0.88;;;;;;;3.08;46.93;100609.87;4371557;32;34102;-89
2022/01/21 11:05:10;;;;;;;2.42;1.02;;;;;;;3.21;46.93;100605.50;4380506;32;32816;-89
2022/01/21 11:07:57;;;;;;;13.73;1.83;;;;;;;3.34;46.61;100595.06;4369358;32;33143;-89
2022/01/21 11:10:46;;;;;;;5.25;1.27;;;;;;;2.65;48.31;100595.94;4371253;32;32689;-89
2022/01/21 11:13:16;;;;;;;1.37;0.77;;;;;;;3.09;47.12;100598.59;4367698;32;33799;-89
2022/01/21 11:16:04;;;;;;;6.35;1.45;;;;;;;3.62;45.51;100589.78;4384850;32;34235;-91
2022/01/21 11:19:08;;;;;;;2.55;1.10;;;;;;;2.83;47.74;100594.22;4369895;32;32922;-92
2022/01/21 11:21:49;;;;;;;5.07;1.15;;;;;;;3.08;47.14;100589.00;4375989;32;32537;-90
2022/01/21 11:24:51;;;;;;;2.37;1.10;;;;;;;3.49;45.84;100583.72;4338272;32;33861;-91
2022/01/21 11:27:37;;;;;;;3.70;1.15;;;;;;;2.94;47.49;100577.69;4380076;32;35158;-90
2022/01/21 11:30:24;;;;;;;7.07;1.10;;;;;;;2.66;48.38;100575.09;4387504;32;32924;-91
2022/01/21 11:32:53;;;;;;;10.50;1.45;;;;;;;2.80;47.56;100575.97;4352611;32;32346;-90
2022/01/21 11:35:50;;;;;;;9.45;1.77;;;;;;;2.87;46.98;100562.94;4348234;32;33388;-90
2022/01/21 11:38:30;;;;;;;3.10;1.02;;;;;;;2.74;47.89;100549.88;4360627;32;32917;-92
2022/01/21 11:41:32;;;;;;;;;;;;;;;3.01;46.74;100540.31;4402285;32;32565;-92
2022/01/21 11:44:08;;;;;;;4.72;1.33;;;;;;;2.88;47.16;100536.84;4386093;32;33080;-92
2022/01/21 11:47:28;;;;;;;2.15;0.70;;;;;;;2.23;48.44;100528.13;4391019;32;32600;-91
2022/01/21 11:49:58;;;;;;;2.90;0.85;;;;;;;2.68;47.05;100513.38;4402271;32;33316;-90
2022/01/21 11:52:46;;;;;;;3.72;1.05;;;;;;;2.86;46.79;100516.84;4393239;32;33049;-90
2022/01/21 11:55:31;;;;;;;5.80;0.82;;;;;;;2.36;47.94;100507.28;4375372;32;32771;-90
2022/01/21 11:58:31;;;;;;;1.70;0.85;;;;;;;2.71;46.36;100491.66;4379583;32;32593;-91
2022/01/21 12:01:32;;;;;;;2.33;0.73;;;;;;;2.94;45.75;100486.38;4398671;32;33166;-89
2022/01/21 12:04:29;;;;;;;5.22;0.70;;;;;;;2.56;46.30;100498.63;4392806;32;34488;-91
2022/01/21 12:07:40;;;;;;;2.92;0.60;;;;;;;2.97;45.15;100489.00;4387585;32;32325;-91
2022/01/21 12:10:23;;;;;;;1.90;0.60;;;;;;;2.68;46.27;100476.88;4387993;32;32567;-91
2022/01/21 12:13:15;;;;;;;6.70;1.05;;;;;;;3.43;44.53;100468.88;4375507;32;33538;-91
2022/01/21 12:21:34;;;;;;;4.95;0.57;;;;;;;3.41;43.86;100459.28;4405481;32;32589;-90
2022/01/21 12:24:03;;;;;;;1.52;0.60;;;;;;;3.71;43.38;100474.84;4404616;32;32922;-91
2022/01/21 12:26:59;;;;;;;4.05;1.05;;;;;;;3.78;44.06;100466.06;4365490;32;32702;-91
2022/01/21 12:29:28;;;;;;;1.23;0.40;;;;;;;4.09;42.58;100460.69;4367945;32;32214;-92
2022/01/21 12:32:06;;;;;;;2.92;0.80;;;;;;;3.74;42.91;100453.91;4380872;32;32440;-92
2022/01/21 12:34:58;;;;;;;;;;;;;;;3.89;42.95;100439.88;4383423;32;33598;-91
2022/01/21 12:41:22;;;;;;;3.92;0.90;;;;;;;3.84;42.76;100445.12;4392559;32;32345;-92
2022/01/21 12:44:07;;;;;;;5.75;1.25;;;;;;;3.71;44.16;100445.25;4381683;32;33124;-91
2022/01/21 12:46:50;;;;;;;4.12;0.98;;;;;;;3.79;43.69;100452.12;4389348;32;33887;-90